Weather at Minsk Mazowiecki Military Air Base

Public forecast

Using degrees Celsius for public forecast. Weather courtesy of forecast.io.

Closest aviation weather report (METAR) to Minsk Mazowiecki Military Air Base

Closest report is Warsaw Chopin Airport, 25.4 nm (47.1 km) W.

2024/07/19 08:00 (retrieved 10 minutes ago)

EPWA 190800Z VRB03KT 9999 FEW046 24/13 Q1022 NOSIG

Closest aviation forecast (TAF) to Minsk Mazowiecki Military Air Base

Closest forecast is Warsaw Chopin Airport, 25.4 nm (47.1 km) W.

2024/07/19 06:33 (retrieved 2 hours ago)

TAF EPWA 190530Z 1906/2006 06005KT CAVOK BECMG 1908/1911 34010KT BECMG 1918/1921 VRB02KT